createdAt,value
2018-08-20T00:01:48.030Z,4.60
2018-08-20T00:04:03.967Z,4.50
2018-08-20T00:06:16.695Z,4.90
2018-08-20T00:08:28.935Z,4.57
2018-08-20T00:10:41.153Z,4.30
2018-08-20T00:12:53.454Z,4.10
2018-08-20T00:15:05.686Z,4.57
2018-08-20T00:17:17.859Z,4.80
2018-08-20T00:19:30.158Z,4.13
2018-08-20T00:21:43.631Z,4.83
2018-08-20T00:23:55.824Z,4.47
2018-08-20T00:26:08.046Z,5.40
2018-08-20T00:28:20.251Z,5.10
2018-08-20T00:30:32.496Z,4.23
2018-08-20T00:32:46.047Z,5.30
2018-08-20T00:34:58.284Z,4.53
2018-08-20T00:37:10.559Z,5.33
2018-08-20T00:39:22.807Z,5.40
2018-08-20T00:41:35.042Z,5.23
2018-08-20T00:43:47.259Z,4.87
2018-08-20T00:45:59.457Z,4.90
2018-08-20T00:48:11.618Z,5.20
2018-08-20T00:50:23.830Z,4.40
2018-08-20T00:52:36.354Z,5.23
2018-08-20T00:54:48.519Z,5.63
2018-08-20T00:57:00.742Z,4.77
2018-08-20T00:59:12.907Z,5.67
2018-08-20T01:01:25.114Z,5.20
2018-08-20T01:03:37.314Z,5.10
2018-08-20T01:05:49.507Z,5.50
2018-08-20T01:08:01.820Z,5.50
2018-08-20T01:10:14.017Z,5.60
2018-08-20T01:12:27.188Z,5.93
2018-08-20T01:14:39.414Z,5.80
2018-08-20T01:16:51.667Z,6.00
2018-08-20T01:19:03.907Z,5.67
2018-08-20T01:21:16.097Z,5.43
2018-08-20T01:23:28.322Z,5.50
2018-08-20T01:25:40.514Z,5.20
2018-08-20T01:27:52.778Z,5.73
2018-08-20T01:30:05.196Z,5.20
2018-08-20T01:32:17.416Z,5.33
2018-08-20T01:34:29.626Z,5.43
2018-08-20T01:36:43.100Z,5.10
2018-08-20T01:38:55.291Z,4.67
2018-08-20T01:41:07.463Z,4.83
2018-08-20T01:43:19.709Z,4.60
2018-08-20T01:45:31.880Z,5.13
2018-08-20T01:47:44.107Z,5.37
2018-08-20T01:49:56.330Z,5.07
2018-08-20T01:52:08.554Z,5.50
2018-08-20T01:54:20.775Z,4.73
2018-08-20T01:56:32.963Z,4.77
2018-08-20T01:58:45.187Z,4.90
2018-08-20T02:00:57.427Z,4.87
2018-08-20T02:03:09.634Z,4.60
2018-08-20T02:05:22.507Z,5.13
2018-08-20T02:07:34.693Z,4.70
2018-08-20T02:09:46.952Z,4.27
2018-08-20T02:11:59.166Z,4.70
2018-08-20T02:14:11.354Z,4.50
2018-08-20T02:16:23.569Z,4.43
2018-08-20T02:18:35.755Z,4.23
2018-08-20T02:20:47.974Z,4.63
2018-08-20T02:23:00.255Z,4.80
2018-08-20T02:25:12.417Z,4.10
2018-08-20T02:27:24.611Z,4.53
2018-08-20T02:29:36.798Z,4.60
2018-08-20T02:31:49.007Z,4.53
2018-08-20T02:34:01.194Z,4.80
2018-08-20T02:36:13.404Z,4.40
2018-08-20T02:38:25.628Z,4.97
2018-08-20T02:40:37.894Z,5.13
2018-08-20T02:42:50.099Z,4.87
2018-08-20T02:45:02.612Z,4.57
2018-08-20T02:47:14.834Z,4.53
2018-08-20T02:49:27.037Z,4.37
2018-08-20T02:51:39.522Z,4.63
2018-08-20T02:53:51.743Z,4.77
2018-08-20T02:56:04.015Z,4.60
2018-08-20T02:58:16.230Z,5.00
2018-08-20T03:00:28.494Z,5.13
2018-08-20T03:02:40.779Z,4.80
2018-08-20T03:04:53.011Z,5.30
2018-08-20T03:07:05.229Z,4.77
2018-08-20T03:09:17.439Z,5.47
2018-08-20T03:11:29.663Z,6.07
2018-08-20T03:13:41.903Z,5.60
2018-08-20T03:15:54.110Z,5.63
2018-08-20T03:18:06.351Z,6.17
2018-08-20T03:20:18.618Z,6.17
2018-08-20T03:22:30.830Z,5.20
2018-08-20T03:24:43.074Z,6.77
2018-08-20T03:26:55.358Z,7.73
2018-08-20T03:29:07.557Z,6.07
2018-08-20T03:31:19.799Z,5.80
2018-08-20T03:33:31.967Z,5.10
2018-08-20T03:35:44.177Z,5.27
2018-08-20T03:37:56.407Z,5.60
2018-08-20T03:40:10.303Z,4.90
2018-08-20T03:42:22.593Z,5.43
2018-08-20T03:44:34.840Z,5.10
2018-08-20T03:46:47.185Z,5.23
2018-08-20T03:48:59.351Z,5.07
2018-08-20T03:51:11.585Z,5.10
2018-08-20T03:53:23.811Z,5.27
2018-08-20T03:55:36.038Z,6.13
2018-08-20T03:57:48.223Z,5.03
2018-08-20T04:00:00.440Z,5.50
2018-08-20T04:02:12.643Z,5.37
2018-08-20T04:04:24.944Z,5.40
2018-08-20T04:06:37.180Z,5.23
2018-08-20T04:08:49.394Z,5.70
2018-08-20T04:11:01.588Z,5.47
2018-08-20T04:13:13.795Z,5.27
2018-08-20T04:15:25.994Z,5.67
2018-08-20T04:17:38.263Z,5.70
2018-08-20T04:19:50.454Z,5.30
2018-08-20T04:22:02.763Z,5.30
2018-08-20T04:24:15.003Z,6.17
2018-08-20T04:26:27.200Z,5.80
2018-08-20T04:28:39.395Z,5.23
2018-08-20T04:30:51.595Z,5.47
2018-08-20T04:33:03.827Z,6.53
2018-08-20T04:35:16.014Z,6.47
2018-08-20T04:37:28.216Z,6.80
2018-08-20T04:39:40.406Z,6.63
2018-08-20T04:41:52.598Z,6.10
2018-08-20T04:44:04.823Z,6.07
2018-08-20T04:46:17.058Z,6.00
2018-08-20T04:48:29.264Z,5.80
2018-08-20T04:50:41.505Z,5.83
2018-08-20T04:52:53.652Z,6.53
2018-08-20T04:55:05.867Z,6.70
2018-08-20T04:57:18.087Z,5.87
2018-08-20T04:59:30.292Z,5.43
2018-08-20T05:01:42.482Z,5.13
2018-08-20T05:03:54.716Z,5.83
2018-08-20T05:06:07.023Z,5.60
2018-08-20T05:08:19.236Z,6.03
2018-08-20T05:10:31.499Z,5.87
2018-08-20T05:12:43.696Z,5.63
2018-08-20T05:14:55.897Z,5.80
2018-08-20T05:17:08.095Z,6.23
2018-08-20T05:19:20.258Z,5.40
2018-08-20T05:21:32.475Z,5.93
2018-08-20T05:23:44.659Z,5.00
2018-08-20T05:25:56.895Z,5.30
2018-08-20T05:28:09.204Z,5.27
2018-08-20T05:30:21.375Z,5.50
2018-08-20T05:32:33.588Z,6.00
2018-08-20T05:34:45.791Z,5.77
2018-08-20T05:36:58.054Z,6.03
2018-08-20T05:39:11.134Z,5.70
2018-08-20T05:41:23.354Z,6.17
2018-08-20T05:43:35.571Z,5.63
2018-08-20T05:45:47.771Z,6.70
2018-08-20T05:48:00.038Z,6.60
2018-08-20T05:50:12.212Z,5.93
2018-08-20T05:52:24.492Z,6.13
2018-08-20T05:54:36.643Z,5.83
2018-08-20T05:56:48.872Z,5.43
2018-08-20T05:59:01.063Z,5.53
2018-08-20T06:01:13.267Z,5.73
2018-08-20T06:03:25.498Z,6.40
2018-08-20T06:05:37.686Z,6.17
2018-08-20T06:07:49.962Z,5.50
2018-08-20T06:10:02.201Z,5.97
2018-08-20T06:12:14.484Z,5.67
2018-08-20T06:14:26.702Z,5.20
2018-08-20T06:16:38.991Z,4.97
2018-08-20T06:18:51.540Z,5.47
2018-08-20T06:21:03.784Z,5.83
2018-08-20T06:23:16.025Z,5.33
2018-08-20T06:25:28.216Z,5.40
2018-08-20T06:27:40.919Z,5.07
2018-08-20T06:29:53.154Z,5.30
2018-08-20T06:32:05.419Z,5.30
2018-08-20T06:34:17.610Z,5.93
2018-08-20T06:36:29.809Z,5.73
2018-08-20T06:38:42.014Z,5.70
2018-08-20T06:40:54.208Z,5.27
2018-08-20T06:43:06.505Z,5.50
2018-08-20T06:45:18.731Z,5.67
2018-08-20T06:47:30.937Z,6.20
2018-08-20T06:49:43.166Z,6.20
2018-08-20T06:51:55.419Z,4.83
2018-08-20T06:54:08.018Z,5.53
2018-08-20T06:56:20.278Z,6.00
2018-08-20T06:58:32.546Z,5.60
2018-08-20T07:00:44.782Z,4.87
2018-08-20T07:02:56.987Z,5.73
2018-08-20T07:05:09.551Z,5.53
2018-08-20T07:07:21.769Z,5.50
2018-08-20T07:09:33.958Z,5.33
2018-08-20T07:11:46.297Z,5.70
2018-08-20T07:13:58.499Z,5.00
2018-08-20T07:16:10.771Z,5.53
2018-08-20T07:18:23.015Z,5.17
2018-08-20T07:20:35.255Z,5.87
2018-08-20T07:22:47.510Z,5.10
2018-08-20T07:24:59.797Z,5.40
2018-08-20T07:27:12.031Z,5.70
2018-08-20T07:29:37.990Z,5.03
2018-08-20T07:31:50.242Z,5.10
2018-08-20T07:34:02.519Z,5.53
2018-08-20T07:36:14.748Z,5.40
2018-08-20T07:38:26.954Z,5.80
2018-08-20T07:40:39.231Z,5.00
2018-08-20T07:42:51.488Z,5.80
2018-08-20T07:45:03.770Z,5.23
2018-08-20T07:47:16.071Z,5.57
2018-08-20T07:49:28.352Z,5.20
2018-08-20T07:51:40.611Z,5.53
2018-08-20T07:53:52.870Z,5.80
2018-08-20T07:56:05.184Z,5.03
2018-08-20T07:58:17.502Z,5.63
2018-08-20T08:00:29.720Z,5.50
2018-08-20T08:02:41.967Z,5.10
2018-08-20T08:04:54.226Z,5.33
2018-08-20T08:07:06.485Z,5.77
2018-08-20T08:09:18.703Z,6.03
2018-08-20T08:11:30.919Z,5.60
2018-08-20T08:13:43.180Z,6.07
2018-08-20T08:15:55.395Z,6.13
2018-08-20T08:18:07.666Z,5.72
2018-08-20T08:20:19.998Z,6.10
2018-08-20T08:22:32.423Z,5.72
2018-08-20T08:24:44.647Z,5.42
2018-08-20T08:26:56.887Z,5.73
2018-08-20T08:29:09.167Z,5.65
2018-08-20T08:31:21.453Z,6.10
2018-08-20T08:33:33.687Z,4.75
2018-08-20T08:35:45.906Z,5.92
2018-08-20T08:37:58.255Z,5.63
2018-08-20T08:40:12.090Z,5.47
2018-08-20T08:42:24.410Z,6.03
2018-08-20T08:44:36.684Z,5.50
2018-08-20T08:46:48.901Z,5.97
2018-08-20T08:49:01.119Z,6.60
2018-08-20T08:51:13.348Z,5.95
2018-08-20T08:53:25.658Z,5.67
2018-08-20T08:55:37.891Z,5.78
2018-08-20T08:57:50.066Z,5.70
2018-08-20T09:00:02.425Z,5.35
2018-08-20T09:02:14.695Z,5.87
2018-08-20T09:04:26.982Z,5.30
2018-08-20T09:06:39.154Z,4.78
2018-08-20T09:08:51.363Z,5.47
2018-08-20T09:11:03.663Z,5.15
2018-08-20T09:13:15.907Z,5.50
2018-08-20T09:15:28.141Z,4.85
2018-08-20T09:17:40.354Z,4.42
2018-08-20T09:19:52.598Z,5.20
2018-08-20T09:22:04.911Z,5.33
2018-08-20T09:24:17.115Z,4.80
2018-08-20T09:26:29.347Z,4.72
2018-08-20T09:28:41.583Z,5.08
2018-08-20T09:30:53.839Z,4.80
2018-08-20T09:33:06.119Z,4.72
2018-08-20T09:35:18.428Z,4.65
2018-08-20T09:37:30.638Z,4.95
2018-08-20T09:39:42.886Z,4.75
2018-08-20T09:41:55.094Z,4.87
2018-08-20T09:44:07.317Z,4.85
2018-08-20T09:46:19.546Z,4.35
2018-08-20T09:48:31.802Z,4.12
2018-08-20T09:50:44.042Z,4.53
2018-08-20T09:52:56.285Z,4.53
2018-08-20T09:55:09.165Z,3.90
2018-08-20T09:57:21.398Z,3.90
2018-08-20T09:59:33.628Z,3.50
2018-08-20T10:01:45.886Z,4.00
2018-08-20T10:03:58.132Z,4.10
2018-08-20T10:06:10.559Z,4.40
2018-08-20T10:08:22.813Z,3.77
2018-08-20T10:10:35.003Z,4.10
2018-08-20T10:12:47.254Z,3.87
2018-08-20T10:14:59.472Z,4.00
2018-08-20T10:17:11.715Z,3.67
2018-08-20T10:19:24.053Z,4.17
2018-08-20T10:21:36.370Z,5.17
2018-08-20T10:23:48.874Z,4.60
2018-08-20T10:26:01.388Z,4.33
2018-08-20T10:28:13.602Z,4.30
2018-08-20T10:30:25.833Z,3.90
2018-08-20T10:32:38.091Z,4.40
2018-08-20T10:34:50.315Z,4.55
2018-08-20T10:37:02.590Z,4.00
2018-08-20T10:39:14.806Z,3.87
2018-08-20T10:41:27.110Z,3.72
2018-08-20T10:43:39.363Z,3.67
2018-08-20T10:45:57.323Z,3.90
2018-08-20T10:48:09.794Z,3.90
2018-08-20T10:50:22.035Z,3.75
2018-08-20T10:52:34.286Z,3.98
2018-08-20T10:54:46.535Z,4.50
2018-08-20T10:56:58.825Z,3.90
2018-08-20T10:59:11.044Z,4.20
2018-08-20T11:01:23.285Z,4.10
2018-08-20T11:03:35.571Z,4.05
2018-08-20T11:05:47.770Z,3.70
2018-08-20T11:07:59.967Z,4.22
2018-08-20T11:10:12.369Z,3.87
2018-08-20T11:12:24.563Z,3.62
2018-08-20T11:14:36.883Z,3.30
2018-08-20T11:16:49.071Z,3.90
2018-08-20T11:19:01.296Z,3.92
2018-08-20T11:21:13.596Z,3.67
2018-08-20T11:23:25.831Z,3.72
2018-08-20T11:25:38.071Z,4.05
2018-08-20T11:27:50.295Z,3.65
2018-08-20T11:30:02.818Z,4.08
2018-08-20T11:32:15.080Z,4.03
2018-08-20T11:34:27.316Z,4.12
2018-08-20T11:36:39.641Z,3.72
2018-08-20T11:38:51.808Z,3.87
2018-08-20T11:41:04.051Z,3.85
2018-08-20T11:43:16.260Z,3.75
2018-08-20T11:45:28.485Z,3.98
2018-08-20T11:47:40.815Z,3.58
2018-08-20T11:49:53.056Z,3.40
2018-08-20T11:52:05.311Z,3.05
2018-08-20T11:54:17.560Z,3.02
2018-08-20T11:56:29.858Z,3.02
2018-08-20T11:58:42.087Z,3.50
2018-08-20T12:00:54.352Z,3.80
2018-08-20T12:03:06.805Z,3.50
2018-08-20T12:05:19.063Z,3.37
2018-08-20T12:07:31.357Z,3.27
2018-08-20T12:09:43.555Z,3.70
2018-08-20T12:11:55.761Z,3.52
2018-08-20T12:14:07.963Z,3.47
2018-08-20T12:16:20.199Z,3.37
2018-08-20T12:18:32.436Z,3.65
2018-08-20T12:20:44.664Z,3.62
2018-08-20T12:22:56.940Z,3.15
2018-08-20T12:25:11.229Z,3.60
2018-08-20T12:27:23.467Z,3.83
2018-08-20T12:29:35.687Z,3.95
2018-08-20T12:31:47.898Z,4.00
2018-08-20T12:34:00.136Z,4.17
2018-08-20T12:36:12.380Z,4.33
2018-08-20T12:38:24.603Z,5.10
2018-08-20T12:40:36.811Z,3.95
2018-08-20T12:42:49.053Z,3.90
2018-08-20T12:45:01.281Z,4.60
2018-08-20T12:47:13.500Z,4.30
2018-08-20T12:49:25.672Z,4.45
2018-08-20T12:51:37.865Z,4.25
2018-08-20T12:53:50.072Z,4.83
2018-08-20T12:56:02.382Z,4.55
2018-08-20T12:58:14.661Z,4.58
2018-08-20T13:00:26.933Z,4.67
2018-08-20T13:02:39.183Z,4.90
2018-08-20T13:04:51.553Z,3.90
2018-08-20T13:07:03.802Z,4.33
2018-08-20T13:09:16.088Z,4.60
2018-08-20T13:11:28.279Z,4.35
2018-08-20T13:13:41.412Z,4.35
2018-08-20T13:15:53.622Z,4.47
2018-08-20T13:18:05.901Z,4.00
2018-08-20T13:20:18.143Z,4.33
2018-08-20T13:22:30.363Z,4.42
2018-08-20T13:24:42.599Z,4.53
2018-08-20T13:26:54.823Z,4.20
2018-08-20T13:29:07.091Z,4.12
2018-08-20T13:31:19.297Z,4.62
2018-08-20T13:33:31.503Z,4.50
2018-08-20T13:35:43.718Z,4.80
2018-08-20T13:37:55.976Z,4.20
2018-08-20T13:40:08.206Z,4.40
2018-08-20T13:42:20.432Z,4.28
2018-08-20T13:44:32.666Z,4.65
2018-08-20T13:46:44.915Z,4.70
2018-08-20T13:48:57.126Z,5.00
2018-08-20T13:51:09.364Z,5.10
2018-08-20T13:53:21.596Z,4.95
2018-08-20T13:55:33.816Z,5.00
2018-08-20T13:57:47.467Z,5.47
2018-08-20T13:59:59.686Z,5.47
2018-08-20T14:02:11.904Z,5.33
2018-08-20T14:04:24.105Z,5.65
2018-08-20T14:06:36.335Z,5.42
2018-08-20T14:08:48.531Z,5.20
2018-08-20T14:11:00.710Z,5.25
2018-08-20T14:13:13.014Z,5.30
2018-08-20T14:15:25.220Z,4.90
2018-08-20T14:17:38.275Z,4.58
2018-08-20T14:19:50.488Z,4.40
2018-08-20T14:22:03.035Z,4.45
2018-08-20T14:24:15.227Z,4.42
2018-08-20T14:26:27.436Z,4.87
2018-08-20T14:28:39.654Z,4.58
2018-08-20T14:30:51.850Z,4.90
2018-08-20T14:33:04.131Z,4.83
2018-08-20T14:35:16.392Z,4.80
2018-08-20T14:37:28.602Z,5.03
2018-08-20T14:39:40.835Z,3.95
2018-08-20T14:41:53.142Z,4.78
2018-08-20T14:44:05.449Z,4.35
2018-08-20T14:46:19.527Z,4.33
2018-08-20T14:48:31.936Z,5.03
2018-08-20T14:50:44.122Z,4.35
2018-08-20T14:52:56.382Z,4.37
2018-08-20T14:55:09.254Z,5.15
2018-08-20T14:57:21.455Z,4.87
2018-08-20T14:59:33.802Z,4.08
2018-08-20T15:01:46.020Z,4.42
2018-08-20T15:03:58.264Z,4.62
2018-08-20T15:06:10.518Z,5.30
2018-08-20T15:08:22.738Z,4.65
2018-08-20T15:10:35.025Z,4.42
2018-08-20T15:12:47.252Z,4.50
2018-08-20T15:14:59.541Z,4.28
2018-08-20T15:17:11.827Z,4.75
2018-08-20T15:19:24.075Z,4.45
2018-08-20T15:21:36.338Z,4.67
2018-08-20T15:23:48.533Z,4.87
2018-08-20T15:26:00.791Z,4.58
2018-08-20T15:28:13.036Z,5.15
2018-08-20T15:30:25.270Z,4.85
2018-08-20T15:32:37.569Z,4.42
2018-08-20T15:34:49.807Z,5.25
2018-08-20T15:37:02.041Z,4.47
2018-08-20T15:39:14.315Z,4.78
2018-08-20T15:41:26.583Z,4.85
2018-08-20T15:43:38.794Z,4.72
2018-08-20T15:45:51.074Z,4.72
2018-08-20T15:48:03.366Z,4.42
2018-08-20T15:50:15.687Z,4.80
2018-08-20T15:52:27.885Z,4.10
2018-08-20T15:54:40.138Z,4.33
2018-08-20T15:56:52.386Z,4.75
2018-08-20T15:59:04.884Z,4.37
2018-08-20T16:01:17.152Z,4.30
2018-08-20T16:03:29.422Z,4.53
2018-08-20T16:05:41.653Z,4.00
2018-08-20T16:07:53.875Z,4.40
2018-08-20T16:10:07.979Z,4.35
2018-08-20T16:12:20.227Z,4.35
2018-08-20T16:14:32.421Z,4.67
2018-08-20T16:16:44.641Z,4.70
2018-08-20T16:18:56.896Z,4.73
2018-08-20T16:21:09.186Z,4.70
2018-08-20T16:23:21.448Z,4.17
2018-08-20T16:25:34.065Z,4.87
2018-08-20T16:27:46.301Z,5.55
2018-08-20T16:29:58.514Z,4.60
2018-08-20T16:32:10.833Z,4.70
2018-08-20T16:34:23.194Z,4.13
2018-08-20T16:36:35.402Z,4.47
2018-08-20T16:38:47.706Z,4.77
2018-08-20T16:40:59.993Z,4.90
2018-08-20T16:43:12.256Z,4.60
2018-08-20T16:45:24.628Z,4.40
2018-08-20T16:47:36.900Z,4.03
2018-08-20T16:49:49.141Z,4.05
2018-08-20T16:52:01.403Z,5.33
2018-08-20T16:54:13.670Z,5.23
2018-08-20T16:56:25.898Z,4.13
2018-08-20T16:58:38.201Z,4.03
2018-08-20T17:00:50.401Z,4.57
2018-08-20T17:03:02.734Z,4.40
2018-08-20T17:05:15.007Z,4.10
2018-08-20T17:07:27.247Z,4.40
2018-08-20T17:09:39.530Z,4.33
2018-08-20T17:11:51.783Z,4.50
2018-08-20T17:14:04.023Z,4.90
2018-08-20T17:16:16.278Z,4.30
2018-08-20T17:18:28.539Z,4.30
2018-08-20T17:20:40.723Z,3.83
2018-08-20T17:23:03.128Z,3.30
2018-08-20T17:25:15.380Z,4.07
2018-08-20T17:27:27.606Z,3.73
2018-08-20T17:29:39.894Z,3.87
2018-08-20T17:31:52.141Z,3.53
2018-08-20T17:34:04.636Z,3.70
2018-08-20T17:36:16.876Z,3.60
2018-08-20T17:38:29.196Z,3.73
2018-08-20T17:40:41.455Z,3.70
2018-08-20T17:42:53.747Z,3.37
2018-08-20T17:45:07.711Z,3.50
2018-08-20T17:47:22.043Z,3.47
2018-08-20T17:49:34.278Z,3.80
2018-08-20T17:51:48.403Z,3.50
2018-08-20T17:54:00.633Z,3.50
2018-08-20T17:56:12.839Z,3.20
2018-08-20T17:58:25.055Z,3.20
2018-08-20T18:00:43.102Z,3.10
2018-08-20T18:02:55.376Z,3.03
2018-08-20T18:05:07.595Z,3.23
2018-08-20T18:07:19.900Z,3.40
2018-08-20T18:09:32.085Z,3.60
2018-08-20T18:11:50.531Z,3.60
2018-08-20T18:14:02.927Z,2.93
2018-08-20T18:16:16.438Z,3.00
2018-08-20T18:18:29.291Z,2.60
2018-08-20T18:20:45.475Z,3.13
2018-08-20T18:22:57.727Z,3.10
2018-08-20T18:25:09.955Z,3.40
2018-08-20T18:27:22.283Z,2.73
2018-08-20T18:29:34.487Z,3.03
2018-08-20T18:31:52.914Z,2.70
2018-08-20T18:34:05.146Z,2.97
2018-08-20T18:36:19.635Z,2.87
2018-08-20T18:38:36.337Z,3.10
2018-08-20T18:40:48.571Z,2.93
2018-08-20T18:43:00.823Z,2.93
2018-08-20T18:45:13.195Z,2.70
2018-08-20T18:47:25.412Z,2.97
2018-08-20T18:49:44.495Z,3.70
2018-08-20T18:52:17.179Z,2.53
2018-08-20T18:54:34.431Z,2.70
2018-08-20T18:56:51.226Z,2.97
2018-08-20T18:59:04.191Z,3.63
2018-08-20T19:01:16.434Z,3.70
2018-08-20T19:03:35.651Z,3.43
2018-08-20T19:05:51.379Z,3.47
2018-08-20T19:08:05.699Z,3.50
2018-08-20T19:10:30.084Z,3.70
2018-08-20T19:12:42.279Z,3.60
2018-08-20T19:14:54.455Z,3.30
2018-08-20T19:17:14.541Z,4.13
2018-08-20T19:19:28.697Z,3.77
2018-08-20T19:21:41.442Z,3.30
2018-08-20T19:23:55.147Z,4.07
2018-08-20T19:26:07.402Z,3.77
2018-08-20T19:28:22.423Z,3.97
2018-08-20T19:30:34.702Z,3.70
2018-08-20T19:32:47.222Z,2.87
2018-08-20T19:34:59.434Z,3.40
2018-08-20T19:37:11.650Z,3.10
2018-08-20T19:39:23.872Z,3.57
2018-08-20T19:41:36.096Z,3.30
2018-08-20T19:43:51.814Z,3.60
2018-08-20T19:46:04.145Z,3.43
2018-08-20T19:48:16.403Z,3.27
2018-08-20T19:50:28.648Z,2.90
2018-08-20T19:52:41.024Z,3.37
2018-08-20T19:54:58.947Z,2.80
2018-08-20T19:57:11.180Z,3.00
2018-08-20T19:59:29.102Z,3.17
2018-08-20T20:01:41.489Z,3.07
2018-08-20T20:03:53.814Z,3.33
2018-08-20T20:06:06.031Z,3.07
2018-08-20T20:08:18.303Z,3.40
2018-08-20T20:10:30.664Z,3.67
2018-08-20T20:12:48.410Z,3.60
2018-08-20T20:15:00.634Z,3.30
2018-08-20T20:17:12.894Z,3.50
2018-08-20T20:19:25.101Z,3.67
2018-08-20T20:21:37.596Z,3.40
2018-08-20T20:23:50.724Z,3.03
2018-08-20T20:26:02.951Z,3.40
2018-08-20T20:28:15.899Z,3.30
2018-08-20T20:30:28.127Z,3.60
2018-08-20T20:32:40.336Z,3.73
2018-08-20T20:34:52.549Z,3.67
2018-08-20T20:37:04.811Z,3.60
2018-08-20T20:39:17.013Z,3.77
2018-08-20T20:41:29.230Z,3.77
2018-08-20T20:43:41.549Z,3.47
2018-08-20T20:45:53.785Z,3.60
2018-08-20T20:48:06.046Z,3.57
2018-08-20T20:50:18.339Z,3.77
2018-08-20T20:52:30.579Z,3.73
2018-08-20T20:54:42.814Z,3.60
2018-08-20T20:56:55.033Z,3.23
2018-08-20T20:59:07.742Z,3.17
2018-08-20T21:01:19.979Z,3.40
2018-08-20T21:03:33.045Z,3.30
2018-08-20T21:05:45.242Z,3.53
2018-08-20T21:07:57.553Z,3.80
2018-08-20T21:10:09.832Z,4.30
2018-08-20T21:12:22.051Z,4.50
2018-08-20T21:14:34.262Z,3.80
2018-08-20T21:16:46.523Z,3.40
2018-08-20T21:19:00.324Z,3.33
2018-08-20T21:21:13.900Z,4.00
2018-08-20T21:23:26.169Z,3.70
2018-08-20T21:25:38.396Z,3.80
2018-08-20T21:27:50.637Z,3.43
2018-08-20T21:30:02.987Z,4.03
2018-08-20T21:32:15.183Z,4.10
2018-08-20T21:34:30.049Z,4.80
2018-08-20T21:36:42.246Z,5.77
2018-08-20T21:38:54.440Z,3.80
2018-08-20T21:41:06.707Z,4.17
2018-08-20T21:43:18.998Z,4.20
2018-08-20T21:45:31.216Z,3.80
2018-08-20T21:47:43.439Z,4.87
2018-08-20T21:49:55.718Z,5.07
2018-08-20T21:52:08.015Z,4.43
2018-08-20T21:54:25.819Z,4.30
2018-08-20T21:56:47.831Z,4.20
2018-08-20T21:59:00.057Z,3.60
2018-08-20T22:01:13.835Z,4.27
2018-08-20T22:03:25.959Z,4.43
2018-08-20T22:05:38.182Z,4.27
2018-08-20T22:07:50.479Z,4.00
2018-08-20T22:10:03.038Z,4.43
2018-08-20T22:12:15.261Z,4.60
2018-08-20T22:14:27.526Z,4.60
2018-08-20T22:16:39.784Z,4.13
2018-08-20T22:18:56.651Z,4.70
2018-08-20T22:21:12.063Z,4.87
2018-08-20T22:23:38.583Z,4.13
2018-08-20T22:25:37.225Z,4.20
2018-08-20T22:27:55.210Z,4.80
2018-08-20T22:30:07.442Z,4.63
2018-08-20T22:32:19.651Z,4.20
2018-08-20T22:34:31.855Z,4.23
2018-08-20T22:36:44.494Z,4.70
2018-08-20T22:38:58.747Z,3.97
2018-08-20T22:41:11.034Z,4.67
2018-08-20T22:43:23.295Z,4.63
2018-08-20T22:45:35.462Z,4.37
2018-08-20T22:47:48.547Z,4.13
2018-08-20T22:50:00.730Z,4.00
2018-08-20T22:52:17.479Z,4.30
2018-08-20T22:54:29.677Z,4.53
2018-08-20T22:56:41.885Z,3.80
2018-08-20T22:58:58.679Z,5.03
2018-08-20T23:01:11.010Z,4.30
2018-08-20T23:03:23.221Z,4.17
2018-08-20T23:05:35.455Z,4.20
2018-08-20T23:07:47.712Z,4.43
2018-08-20T23:09:59.909Z,4.23
2018-08-20T23:12:12.223Z,4.47
2018-08-20T23:14:24.414Z,4.40
2018-08-20T23:16:36.966Z,4.50
2018-08-20T23:18:49.231Z,3.83
2018-08-20T23:21:01.454Z,4.50
2018-08-20T23:23:15.861Z,4.27
2018-08-20T23:25:28.231Z,4.57
2018-08-20T23:27:40.938Z,4.60
2018-08-20T23:29:53.134Z,4.10
2018-08-20T23:32:05.326Z,4.27
2018-08-20T23:34:17.476Z,3.87
2018-08-20T23:36:29.690Z,4.13
2018-08-20T23:38:41.913Z,4.40
2018-08-20T23:40:54.119Z,4.43
2018-08-20T23:43:06.379Z,4.80
2018-08-20T23:45:18.570Z,4.17
2018-08-20T23:47:30.756Z,4.23
2018-08-20T23:49:42.969Z,4.20
2018-08-20T23:51:55.166Z,4.20
2018-08-20T23:54:08.030Z,4.97
2018-08-20T23:56:20.215Z,4.53
2018-08-20T23:58:32.451Z,4.67
